In Rescue
 
Open Full Screen Window  High Contrast Mode
Wind Gusting 00 knots
12
June 26, 2019 6:57 PM PDT
Weather Information
Wind Direction
  250 °
Wind Speed
  12 kt (14 mph)
Wind Gust
  00 kt (0 mph)
Altimeter
29.93 in
Visibility
10 SM
Temperature
26° C
79° F
Dewpoint
11° C
52° F
Humidity
39%
1hr Rain Fall
00.00 in.
24hr Rain Fall
00.00 in.
Sky Condition
Clear
VFR

METAR KSBD 270157Z AUTO 25012KT 10SM CLR 26/11 A2993 RMK AO2 T02610106

FAA Disclaimer: The data displayed is for advisory purposes only and is not to be used for flight planning or operations.